Airfield :
LOGIN :

Register | Disclaimer

   EN    FR    IT 

 










Legend :    VFR   Marginal VFR   IFR   Intensive IFR   Very Intensive IFR
Visi :
Ceiling :
>= 8 km
>= 3000ft
5 to 8 km
1000 to 3000 ft
1500m to 5 km
500 to 1000 ft
800 to 1500m
200 to 500 ft
< 800m
< 200 ft
Symbols :   Thunderstorms  Fog  Heavy snow  Heavy precipitations  Wind > 20 kt
SIGMETs :     Misc.  Thunderstorms  Icing  Turbulence  Mountain Waves  Volcanic Ashes







- Airport Elevation : 586 ft


LIMN - Cameri Air Force Base

CURRENT METAR :
  • 111355Z 23008KT CAVOK 11/M00 Q1017 RMK SKC VIS MIN 9999 BLU

EXPIRED METARs :
  • 111255Z 23006KT CAVOK 12/M02 Q1018 RMK SKC VIS MIN 9999 BLU
  • 111155Z 25007KT CAVOK 11/M01 Q1018 RMK SKC VIS MIN 9999 BLU

TAF TAF LIMN
Valid from the 11 at 12:00 until the 11 at 21:00 UTC


111100Z 1112/1121 32006KT CAVOK
No reported NOTAMs for that airfield.
1 SIGMET reported for the Milano FIR (LIMM) :
 
Severe turbulence
LIMM SIGMET 3 VALID 111040/111440 LIIP
LIMM MILANO FIR SEV TURB FCST WSW OF LINE N4649 E01058 - N4324 E01329 ABV FL230 MOV E NC=



MET'MAP, your aeronautical weather chart ! - Copyright ORBIFLY December 2007 - Disclaimer

ORBIFLY MET'MAP TEAM :

Programming & Development : Alexandra Zaïnal
Concept & Development : Baudouin d'Aumeries
Co-Development & Prog : Marc-Olivier Méhu
Technical & hardware support : Manuel Goepfert

Contact : metmap@orbifly.com




SOURCES & CREDITS :

   NOAA